sensor_id;sensor_type;location;lat;lon;timestamp;temperature;humidity
22471;DHT22;11402;51.374;6.594;2023-06-19T00:00:09;22.80;99.90
22471;DHT22;11402;51.374;6.594;2023-06-19T00:02:42;22.70;99.90
22471;DHT22;11402;51.374;6.594;2023-06-19T00:05:08;22.60;99.90
22471;DHT22;11402;51.374;6.594;2023-06-19T00:07:36;22.60;99.90
22471;DHT22;11402;51.374;6.594;2023-06-19T00:10:02;22.60;99.90
22471;DHT22;11402;51.374;6.594;2023-06-19T00:12:28;22.60;99.90
22471;DHT22;11402;51.374;6.594;2023-06-19T00:14:53;22.50;99.90
22471;DHT22;11402;51.374;6.594;2023-06-19T00:17:19;22.50;99.90
22471;DHT22;11402;51.374;6.594;2023-06-19T00:19:44;22.50;99.90
22471;DHT22;11402;51.374;6.594;2023-06-19T00:22:10;22.40;99.90
22471;DHT22;11402;51.374;6.594;2023-06-19T00:24:36;22.40;99.90
22471;DHT22;11402;51.374;6.594;2023-06-19T00:27:01;22.70;99.90
22471;DHT22;11402;51.374;6.594;2023-06-19T00:29:29;22.30;99.90
22471;DHT22;11402;51.374;6.594;2023-06-19T00:31:54;22.50;99.90
22471;DHT22;11402;51.374;6.594;2023-06-19T00:34:20;22.40;99.90
22471;DHT22;11402;51.374;6.594;2023-06-19T00:36:45;22.60;99.90
22471;DHT22;11402;51.374;6.594;2023-06-19T00:39:12;22.30;99.90
22471;DHT22;11402;51.374;6.594;2023-06-19T00:41:38;22.50;99.90
22471;DHT22;11402;51.374;6.594;2023-06-19T00:44:04;22.70;99.90
22471;DHT22;11402;51.374;6.594;2023-06-19T00:46:30;22.50;99.90
22471;DHT22;11402;51.374;6.594;2023-06-19T00:48:57;22.60;99.90
22471;DHT22;11402;51.374;6.594;2023-06-19T00:51:22;22.40;99.90
22471;DHT22;11402;51.374;6.594;2023-06-19T00:53:49;22.10;99.90
22471;DHT22;11402;51.374;6.594;2023-06-19T00:56:14;22.20;99.90
22471;DHT22;11402;51.374;6.594;2023-06-19T00:58:43;22.10;99.90
22471;DHT22;11402;51.374;6.594;2023-06-19T01:01:09;22.10;99.90
22471;DHT22;11402;51.374;6.594;2023-06-19T01:03:36;22.00;99.90
22471;DHT22;11402;51.374;6.594;2023-06-19T01:06:02;21.80;99.90
22471;DHT22;11402;51.374;6.594;2023-06-19T01:08:52;22.00;99.90
22471;DHT22;11402;51.374;6.594;2023-06-19T01:11:24;22.10;99.90
22471;DHT22;11402;51.374;6.594;2023-06-19T01:13:55;21.70;99.90
22471;DHT22;11402;51.374;6.594;2023-06-19T01:16:23;21.80;99.90
22471;DHT22;11402;51.374;6.594;2023-06-19T01:18:50;21.70;99.90
22471;DHT22;11402;51.374;6.594;2023-06-19T01:21:17;21.70;99.90
22471;DHT22;11402;51.374;6.594;2023-06-19T01:23:43;21.70;99.90
22471;DHT22;11402;51.374;6.594;2023-06-19T01:26:10;21.70;99.90
22471;DHT22;11402;51.374;6.594;2023-06-19T01:28:36;21.70;99.90
22471;DHT22;11402;51.374;6.594;2023-06-19T01:31:15;21.60;99.90
22471;DHT22;11402;51.374;6.594;2023-06-19T01:33:45;22.10;99.90
22471;DHT22;11402;51.374;6.594;2023-06-19T01:36:11;21.70;99.90
22471;DHT22;11402;51.374;6.594;2023-06-19T01:38:38;21.70;99.90
22471;DHT22;11402;51.374;6.594;2023-06-19T01:41:05;21.60;99.90
22471;DHT22;11402;51.374;6.594;2023-06-19T01:43:32;21.50;99.90
22471;DHT22;11402;51.374;6.594;2023-06-19T01:45:59;21.40;99.90
22471;DHT22;11402;51.374;6.594;2023-06-19T01:48:27;21.50;99.90
22471;DHT22;11402;51.374;6.594;2023-06-19T01:50:53;21.40;99.90
22471;DHT22;11402;51.374;6.594;2023-06-19T01:53:19;21.20;99.90
22471;DHT22;11402;51.374;6.594;2023-06-19T01:55:44;21.40;99.90
22471;DHT22;11402;51.374;6.594;2023-06-19T01:58:10;21.30;99.90
22471;DHT22;11402;51.374;6.594;2023-06-19T02:00:35;21.20;99.90
22471;DHT22;11402;51.374;6.594;2023-06-19T02:03:01;21.40;99.90
22471;DHT22;11402;51.374;6.594;2023-06-19T02:05:27;21.50;99.90
22471;DHT22;11402;51.374;6.594;2023-06-19T02:07:53;21.40;99.90
22471;DHT22;11402;51.374;6.594;2023-06-19T02:10:18;21.40;99.90
22471;DHT22;11402;51.374;6.594;2023-06-19T02:12:44;21.60;99.90
22471;DHT22;11402;51.374;6.594;2023-06-19T02:15:10;21.60;99.90
22471;DHT22;11402;51.374;6.594;2023-06-19T02:17:35;21.80;99.90
22471;DHT22;11402;51.374;6.594;2023-06-19T02:20:01;21.80;99.90
22471;DHT22;11402;51.374;6.594;2023-06-19T02:22:26;21.80;99.90
22471;DHT22;11402;51.374;6.594;2023-06-19T02:24:52;21.90;99.90
22471;DHT22;11402;51.374;6.594;2023-06-19T02:27:17;21.60;99.90
22471;DHT22;11402;51.374;6.594;2023-06-19T02:29:43;21.60;99.90
22471;DHT22;11402;51.374;6.594;2023-06-19T02:32:08;21.90;99.90
22471;DHT22;11402;51.374;6.594;2023-06-19T02:34:34;21.90;99.90
22471;DHT22;11402;51.374;6.594;2023-06-19T02:37:00;21.90;99.90
22471;DHT22;11402;51.374;6.594;2023-06-19T02:39:25;21.80;99.90
22471;DHT22;11402;51.374;6.594;2023-06-19T02:41:51;21.80;99.90
22471;DHT22;11402;51.374;6.594;2023-06-19T02:44:16;21.90;99.90
22471;DHT22;11402;51.374;6.594;2023-06-19T02:46:42;22.00;99.90
22471;DHT22;11402;51.374;6.594;2023-06-19T02:49:08;22.00;99.90
22471;DHT22;11402;51.374;6.594;2023-06-19T02:51:33;22.10;99.90
22471;DHT22;11402;51.374;6.594;2023-06-19T02:53:59;22.00;99.90
22471;DHT22;11402;51.374;6.594;2023-06-19T02:56:25;22.00;99.90
22471;DHT22;11402;51.374;6.594;2023-06-19T02:58:51;22.00;99.90
22471;DHT22;11402;51.374;6.594;2023-06-19T03:01:17;22.00;99.90
22471;DHT22;11402;51.374;6.594;2023-06-19T03:03:43;22.00;99.90
22471;DHT22;11402;51.374;6.594;2023-06-19T03:06:08;22.00;99.90
22471;DHT22;11402;51.374;6.594;2023-06-19T03:08:35;21.90;99.90
22471;DHT22;11402;51.374;6.594;2023-06-19T03:11:00;21.80;99.90
22471;DHT22;11402;51.374;6.594;2023-06-19T03:13:29;21.90;99.90
22471;DHT22;11402;51.374;6.594;2023-06-19T03:15:56;21.80;99.90
22471;DHT22;11402;51.374;6.594;2023-06-19T03:18:21;21.80;99.90
22471;DHT22;11402;51.374;6.594;2023-06-19T03:20:48;21.80;99.90
22471;DHT22;11402;51.374;6.594;2023-06-19T03:23:13;21.80;99.90
22471;DHT22;11402;51.374;6.594;2023-06-19T03:25:39;21.70;99.90
22471;DHT22;11402;51.374;6.594;2023-06-19T03:28:08;21.70;99.90
22471;DHT22;11402;51.374;6.594;2023-06-19T03:30:34;21.70;99.90
22471;DHT22;11402;51.374;6.594;2023-06-19T03:32:59;21.70;99.90
22471;DHT22;11402;51.374;6.594;2023-06-19T03:35:25;21.70;99.90
22471;DHT22;11402;51.374;6.594;2023-06-19T03:37:50;21.70;99.90
22471;DHT22;11402;51.374;6.594;2023-06-19T03:40:16;21.50;99.90
22471;DHT22;11402;51.374;6.594;2023-06-19T03:42:42;21.60;99.90
22471;DHT22;11402;51.374;6.594;2023-06-19T03:45:08;21.50;99.90
22471;DHT22;11402;51.374;6.594;2023-06-19T03:47:33;21.40;99.90
22471;DHT22;11402;51.374;6.594;2023-06-19T03:49:59;21.40;99.90
22471;DHT22;11402;51.374;6.594;2023-06-19T03:52:24;21.40;99.90
22471;DHT22;11402;51.374;6.594;2023-06-19T03:54:50;21.20;99.90
22471;DHT22;11402;51.374;6.594;2023-06-19T03:57:15;21.40;99.90
22471;DHT22;11402;51.374;6.594;2023-06-19T03:59:41;21.40;99.90
22471;DHT22;11402;51.374;6.594;2023-06-19T04:02:06;21.30;99.90
22471;DHT22;11402;51.374;6.594;2023-06-19T04:04:32;21.30;99.90
22471;DHT22;11402;51.374;6.594;2023-06-19T04:06:57;21.20;99.90
22471;DHT22;11402;51.374;6.594;2023-06-19T04:09:24;21.20;99.90
22471;DHT22;11402;51.374;6.594;2023-06-19T04:11:50;21.20;99.90
22471;DHT22;11402;51.374;6.594;2023-06-19T04:14:16;21.10;99.90
22471;DHT22;11402;51.374;6.594;2023-06-19T04:16:41;21.20;99.90
22471;DHT22;11402;51.374;6.594;2023-06-19T04:19:07;21.20;99.90
22471;DHT22;11402;51.374;6.594;2023-06-19T04:21:32;21.10;99.90
22471;DHT22;11402;51.374;6.594;2023-06-19T04:23:58;21.00;99.90
22471;DHT22;11402;51.374;6.594;2023-06-19T04:26:23;20.90;99.90
22471;DHT22;11402;51.374;6.594;2023-06-19T04:28:50;21.10;99.90
22471;DHT22;11402;51.374;6.594;2023-06-19T04:31:15;21.10;99.90
22471;DHT22;11402;51.374;6.594;2023-06-19T04:33:43;21.10;99.90
22471;DHT22;11402;51.374;6.594;2023-06-19T04:36:09;21.00;99.90
22471;DHT22;11402;51.374;6.594;2023-06-19T04:38:35;20.90;99.90
22471;DHT22;11402;51.374;6.594;2023-06-19T04:41:00;20.90;99.90
22471;DHT22;11402;51.374;6.594;2023-06-19T04:43:26;20.60;99.90
22471;DHT22;11402;51.374;6.594;2023-06-19T04:45:51;20.90;99.90
22471;DHT22;11402;51.374;6.594;2023-06-19T04:48:17;20.90;99.90
22471;DHT22;11402;51.374;6.594;2023-06-19T04:50:43;20.90;99.90
22471;DHT22;11402;51.374;6.594;2023-06-19T04:53:08;21.10;99.90
22471;DHT22;11402;51.374;6.594;2023-06-19T04:55:34;21.20;99.90
22471;DHT22;11402;51.374;6.594;2023-06-19T04:57:59;21.20;99.90
22471;DHT22;11402;51.374;6.594;2023-06-19T05:00:25;21.20;99.90
22471;DHT22;11402;51.374;6.594;2023-06-19T05:02:50;21.20;99.90
22471;DHT22;11402;51.374;6.594;2023-06-19T05:05:17;21.40;99.90
22471;DHT22;11402;51.374;6.594;2023-06-19T05:07:42;21.50;99.90
22471;DHT22;11402;51.374;6.594;2023-06-19T05:10:08;21.30;99.90
22471;DHT22;11402;51.374;6.594;2023-06-19T05:12:35;21.50;99.90
22471;DHT22;11402;51.374;6.594;2023-06-19T05:15:01;21.50;99.90
22471;DHT22;11402;51.374;6.594;2023-06-19T05:17:26;21.40;99.90
22471;DHT22;11402;51.374;6.594;2023-06-19T05:19:52;21.40;99.90
22471;DHT22;11402;51.374;6.594;2023-06-19T05:22:18;21.30;99.90
22471;DHT22;11402;51.374;6.594;2023-06-19T05:24:44;21.40;99.90
22471;DHT22;11402;51.374;6.594;2023-06-19T05:27:10;21.40;99.90
22471;DHT22;11402;51.374;6.594;2023-06-19T05:29:36;21.50;99.90
22471;DHT22;11402;51.374;6.594;2023-06-19T05:32:01;21.50;99.90
22471;DHT22;11402;51.374;6.594;2023-06-19T05:34:27;21.60;99.90
22471;DHT22;11402;51.374;6.594;2023-06-19T05:36:53;21.50;99.90
22471;DHT22;11402;51.374;6.594;2023-06-19T05:39:18;21.50;99.90
22471;DHT22;11402;51.374;6.594;2023-06-19T05:41:44;21.50;99.90
22471;DHT22;11402;51.374;6.594;2023-06-19T05:44:11;21.50;99.90
22471;DHT22;11402;51.374;6.594;2023-06-19T05:46:41;21.40;99.90
22471;DHT22;11402;51.374;6.594;2023-06-19T05:49:06;21.30;99.90
22471;DHT22;11402;51.374;6.594;2023-06-19T05:51:32;21.30;99.90
22471;DHT22;11402;51.374;6.594;2023-06-19T05:53:58;21.30;99.90
22471;DHT22;11402;51.374;6.594;2023-06-19T05:56:31;21.50;99.90
22471;DHT22;11402;51.374;6.594;2023-06-19T05:58:58;21.60;99.90
22471;DHT22;11402;51.374;6.594;2023-06-19T06:01:25;21.60;99.90
22471;DHT22;11402;51.374;6.594;2023-06-19T06:03:53;21.60;99.90
22471;DHT22;11402;51.374;6.594;2023-06-19T06:06:19;21.70;99.90
22471;DHT22;11402;51.374;6.594;2023-06-19T06:08:45;21.80;99.90
22471;DHT22;11402;51.374;6.594;2023-06-19T06:11:10;21.90;99.90
22471;DHT22;11402;51.374;6.594;2023-06-19T06:13:36;21.60;99.90
22471;DHT22;11402;51.374;6.594;2023-06-19T06:16:01;21.60;99.90
22471;DHT22;11402;51.374;6.594;2023-06-19T06:18:27;21.60;99.90
22471;DHT22;11402;51.374;6.594;2023-06-19T06:20:53;21.50;99.90
22471;DHT22;11402;51.374;6.594;2023-06-19T06:23:18;21.50;99.90
22471;DHT22;11402;51.374;6.594;2023-06-19T06:25:44;21.60;99.90
22471;DHT22;11402;51.374;6.594;2023-06-19T06:28:11;21.60;99.90
22471;DHT22;11402;51.374;6.594;2023-06-19T06:30:36;21.60;99.90
22471;DHT22;11402;51.374;6.594;2023-06-19T06:33:02;21.60;99.90
22471;DHT22;11402;51.374;6.594;2023-06-19T06:35:28;21.60;99.90
22471;DHT22;11402;51.374;6.594;2023-06-19T06:37:53;21.70;99.90
22471;DHT22;11402;51.374;6.594;2023-06-19T06:40:19;21.70;99.90
22471;DHT22;11402;51.374;6.594;2023-06-19T06:42:44;21.70;99.90
22471;DHT22;11402;51.374;6.594;2023-06-19T06:45:10;21.70;99.90
22471;DHT22;11402;51.374;6.594;2023-06-19T06:47:36;21.50;99.90
22471;DHT22;11402;51.374;6.594;2023-06-19T06:50:01;21.40;99.90
22471;DHT22;11402;51.374;6.594;2023-06-19T06:52:27;21.50;99.90
22471;DHT22;11402;51.374;6.594;2023-06-19T06:54:53;21.50;99.90
22471;DHT22;11402;51.374;6.594;2023-06-19T06:57:19;21.70;99.90
22471;DHT22;11402;51.374;6.594;2023-06-19T06:59:44;21.50;99.90
22471;DHT22;11402;51.374;6.594;2023-06-19T07:02:10;21.40;99.90
22471;DHT22;11402;51.374;6.594;2023-06-19T07:04:35;21.50;99.90
22471;DHT22;11402;51.374;6.594;2023-06-19T07:07:01;21.60;99.90
22471;DHT22;11402;51.374;6.594;2023-06-19T07:09:29;21.80;99.90
22471;DHT22;11402;51.374;6.594;2023-06-19T07:11:54;21.60;99.90
22471;DHT22;11402;51.374;6.594;2023-06-19T07:14:20;21.80;99.90
22471;DHT22;11402;51.374;6.594;2023-06-19T07:16:46;22.00;99.90
22471;DHT22;11402;51.374;6.594;2023-06-19T07:19:11;21.80;99.90
22471;DHT22;11402;51.374;6.594;2023-06-19T07:21:37;21.70;99.90
22471;DHT22;11402;51.374;6.594;2023-06-19T07:24:04;21.90;99.90
22471;DHT22;11402;51.374;6.594;2023-06-19T07:28:56;22.00;99.90
22471;DHT22;11402;51.374;6.594;2023-06-19T07:31:22;21.80;99.90
22471;DHT22;11402;51.374;6.594;2023-06-19T07:33:48;21.90;99.90
22471;DHT22;11402;51.374;6.594;2023-06-19T07:36:13;21.80;99.90
22471;DHT22;11402;51.374;6.594;2023-06-19T07:38:43;21.60;99.90
22471;DHT22;11402;51.374;6.594;2023-06-19T07:41:09;21.60;99.90
22471;DHT22;11402;51.374;6.594;2023-06-19T07:43:36;21.80;99.90
22471;DHT22;11402;51.374;6.594;2023-06-19T07:46:02;22.00;99.90
22471;DHT22;11402;51.374;6.594;2023-06-19T07:48:28;22.20;99.90
22471;DHT22;11402;51.374;6.594;2023-06-19T07:50:54;22.40;99.90
22471;DHT22;11402;51.374;6.594;2023-06-19T07:53:20;22.50;99.90
22471;DHT22;11402;51.374;6.594;2023-06-19T07:55:45;22.50;99.90
22471;DHT22;11402;51.374;6.594;2023-06-19T07:58:11;22.50;99.90
22471;DHT22;11402;51.374;6.594;2023-06-19T08:00:37;22.70;99.90
22471;DHT22;11402;51.374;6.594;2023-06-19T08:03:02;22.80;99.90
22471;DHT22;11402;51.374;6.594;2023-06-19T08:05:28;22.90;99.90
22471;DHT22;11402;51.374;6.594;2023-06-19T08:07:53;22.90;99.90
22471;DHT22;11402;51.374;6.594;2023-06-19T08:10:19;22.90;99.90
22471;DHT22;11402;51.374;6.594;2023-06-19T08:12:45;22.90;99.90
22471;DHT22;11402;51.374;6.594;2023-06-19T08:15:11;23.10;99.90
22471;DHT22;11402;51.374;6.594;2023-06-19T08:17:41;23.10;99.90
22471;DHT22;11402;51.374;6.594;2023-06-19T08:20:08;23.20;99.90
22471;DHT22;11402;51.374;6.594;2023-06-19T08:22:34;23.30;99.90
22471;DHT22;11402;51.374;6.594;2023-06-19T08:24:59;23.40;99.90
22471;DHT22;11402;51.374;6.594;2023-06-19T08:27:25;23.40;99.90
22471;DHT22;11402;51.374;6.594;2023-06-19T08:29:50;23.30;99.90
22471;DHT22;11402;51.374;6.594;2023-06-19T08:32:16;23.20;99.90
22471;DHT22;11402;51.374;6.594;2023-06-19T08:34:42;23.20;99.90
22471;DHT22;11402;51.374;6.594;2023-06-19T08:37:08;23.20;99.90
22471;DHT22;11402;51.374;6.594;2023-06-19T08:39:34;23.20;99.90
22471;DHT22;11402;51.374;6.594;2023-06-19T08:42:04;23.20;99.90
22471;DHT22;11402;51.374;6.594;2023-06-19T08:44:30;23.20;99.90
22471;DHT22;11402;51.374;6.594;2023-06-19T08:46:57;23.20;99.90
22471;DHT22;11402;51.374;6.594;2023-06-19T08:49:23;23.30;99.90
22471;DHT22;11402;51.374;6.594;2023-06-19T08:51:49;23.40;99.90
22471;DHT22;11402;51.374;6.594;2023-06-19T08:54:14;23.30;99.90
22471;DHT22;11402;51.374;6.594;2023-06-19T08:56:40;23.50;99.90
22471;DHT22;11402;51.374;6.594;2023-06-19T08:59:16;23.50;99.90
22471;DHT22;11402;51.374;6.594;2023-06-19T09:01:53;23.70;99.90
22471;DHT22;11402;51.374;6.594;2023-06-19T09:04:25;23.80;99.90
22471;DHT22;11402;51.374;6.594;2023-06-19T09:06:58;24.00;99.90
22471;DHT22;11402;51.374;6.594;2023-06-19T09:09:25;24.20;99.90
22471;DHT22;11402;51.374;6.594;2023-06-19T09:14:39;24.20;99.90
22471;DHT22;11402;51.374;6.594;2023-06-19T09:17:07;24.20;99.90
22471;DHT22;11402;51.374;6.594;2023-06-19T09:19:34;24.00;99.90
22471;DHT22;11402;51.374;6.594;2023-06-19T09:22:03;24.00;99.90
22471;DHT22;11402;51.374;6.594;2023-06-19T09:24:40;24.10;99.90
22471;DHT22;11402;51.374;6.594;2023-06-19T09:27:11;24.20;99.90
22471;DHT22;11402;51.374;6.594;2023-06-19T09:29:42;24.30;99.90
22471;DHT22;11402;51.374;6.594;2023-06-19T09:34:41;24.30;99.90
22471;DHT22;11402;51.374;6.594;2023-06-19T09:37:07;24.80;99.90
22471;DHT22;11402;51.374;6.594;2023-06-19T09:39:34;24.40;99.90
22471;DHT22;11402;51.374;6.594;2023-06-19T09:42:02;24.40;99.90
22471;DHT22;11402;51.374;6.594;2023-06-19T09:44:31;24.60;99.90
22471;DHT22;11402;51.374;6.594;2023-06-19T09:46:59;24.40;99.90
22471;DHT22;11402;51.374;6.594;2023-06-19T09:49:28;24.40;99.90
22471;DHT22;11402;51.374;6.594;2023-06-19T09:51:57;24.40;99.90
22471;DHT22;11402;51.374;6.594;2023-06-19T09:54:24;24.60;99.90
22471;DHT22;11402;51.374;6.594;2023-06-19T09:56:50;24.60;99.90
22471;DHT22;11402;51.374;6.594;2023-06-19T09:59:17;24.60;99.90
22471;DHT22;11402;51.374;6.594;2023-06-19T10:01:43;24.70;99.90
22471;DHT22;11402;51.374;6.594;2023-06-19T10:04:10;24.60;99.90
22471;DHT22;11402;51.374;6.594;2023-06-19T10:06:44;24.80;99.90
22471;DHT22;11402;51.374;6.594;2023-06-19T10:09:11;25.10;99.90
22471;DHT22;11402;51.374;6.594;2023-06-19T10:14:11;25.00;99.90
22471;DHT22;11402;51.374;6.594;2023-06-19T10:16:38;25.30;99.90
22471;DHT22;11402;51.374;6.594;2023-06-19T10:19:15;25.50;99.90
22471;DHT22;11402;51.374;6.594;2023-06-19T10:21:46;25.20;99.90
22471;DHT22;11402;51.374;6.594;2023-06-19T10:24:16;25.30;99.90
22471;DHT22;11402;51.374;6.594;2023-06-19T10:27:05;25.30;99.90
22471;DHT22;11402;51.374;6.594;2023-06-19T10:29:40;25.30;99.90
22471;DHT22;11402;51.374;6.594;2023-06-19T10:32:06;25.40;99.90
22471;DHT22;11402;51.374;6.594;2023-06-19T10:34:35;25.50;99.90
22471;DHT22;11402;51.374;6.594;2023-06-19T10:37:01;25.20;99.90
22471;DHT22;11402;51.374;6.594;2023-06-19T10:39:27;25.10;99.90
22471;DHT22;11402;51.374;6.594;2023-06-19T10:41:53;25.20;99.90
22471;DHT22;11402;51.374;6.594;2023-06-19T10:44:18;25.40;99.90
22471;DHT22;11402;51.374;6.594;2023-06-19T10:46:44;25.60;99.90
22471;DHT22;11402;51.374;6.594;2023-06-19T10:49:10;25.50;99.90
22471;DHT22;11402;51.374;6.594;2023-06-19T10:51:41;25.50;99.90
22471;DHT22;11402;51.374;6.594;2023-06-19T10:54:09;25.50;99.90
22471;DHT22;11402;51.374;6.594;2023-06-19T10:56:35;25.40;99.90
22471;DHT22;11402;51.374;6.594;2023-06-19T10:59:06;25.40;99.90
22471;DHT22;11402;51.374;6.594;2023-06-19T11:02:01;25.40;99.90
22471;DHT22;11402;51.374;6.594;2023-06-19T11:04:26;25.50;99.90
22471;DHT22;11402;51.374;6.594;2023-06-19T11:06:53;25.60;99.90
22471;DHT22;11402;51.374;6.594;2023-06-19T11:09:19;25.60;99.90
22471;DHT22;11402;51.374;6.594;2023-06-19T11:11:46;25.80;99.90
22471;DHT22;11402;51.374;6.594;2023-06-19T11:14:13;25.80;99.90
22471;DHT22;11402;51.374;6.594;2023-06-19T11:16:47;26.00;99.90
22471;DHT22;11402;51.374;6.594;2023-06-19T11:19:20;25.90;99.90
22471;DHT22;11402;51.374;6.594;2023-06-19T11:21:50;25.90;99.90
22471;DHT22;11402;51.374;6.594;2023-06-19T11:24:16;26.10;99.90
22471;DHT22;11402;51.374;6.594;2023-06-19T11:26:44;26.10;99.90
22471;DHT22;11402;51.374;6.594;2023-06-19T11:29:25;26.10;99.90
22471;DHT22;11402;51.374;6.594;2023-06-19T11:31:53;26.20;99.90
22471;DHT22;11402;51.374;6.594;2023-06-19T11:34:20;26.00;99.90
22471;DHT22;11402;51.374;6.594;2023-06-19T11:36:55;26.00;99.90
22471;DHT22;11402;51.374;6.594;2023-06-19T11:39:21;25.90;99.90
22471;DHT22;11402;51.374;6.594;2023-06-19T11:41:47;26.00;99.90
22471;DHT22;11402;51.374;6.594;2023-06-19T11:44:13;26.10;99.90
22471;DHT22;11402;51.374;6.594;2023-06-19T11:46:38;26.10;99.90
22471;DHT22;11402;51.374;6.594;2023-06-19T11:49:22;26.00;99.90
22471;DHT22;11402;51.374;6.594;2023-06-19T11:51:48;26.10;99.90
22471;DHT22;11402;51.374;6.594;2023-06-19T11:54:14;25.80;99.90
22471;DHT22;11402;51.374;6.594;2023-06-19T11:56:48;26.00;99.90
22471;DHT22;11402;51.374;6.594;2023-06-19T11:59:14;26.20;99.90
22471;DHT22;11402;51.374;6.594;2023-06-19T12:01:40;26.40;99.90
22471;DHT22;11402;51.374;6.594;2023-06-19T12:04:06;26.50;99.90
22471;DHT22;11402;51.374;6.594;2023-06-19T12:06:32;26.60;99.90
22471;DHT22;11402;51.374;6.594;2023-06-19T12:08:58;26.70;99.90
22471;DHT22;11402;51.374;6.594;2023-06-19T12:11:24;26.80;99.90
22471;DHT22;11402;51.374;6.594;2023-06-19T12:13:50;26.90;99.90
22471;DHT22;11402;51.374;6.594;2023-06-19T12:16:16;26.90;99.90
22471;DHT22;11402;51.374;6.594;2023-06-19T12:18:42;26.90;99.90
22471;DHT22;11402;51.374;6.594;2023-06-19T12:21:08;26.70;99.90
22471;DHT22;11402;51.374;6.594;2023-06-19T12:23:33;26.60;99.90
22471;DHT22;11402;51.374;6.594;2023-06-19T12:25:59;26.60;99.90
22471;DHT22;11402;51.374;6.594;2023-06-19T12:28:25;26.50;99.90
22471;DHT22;11402;51.374;6.594;2023-06-19T12:30:51;26.60;99.90
22471;DHT22;11402;51.374;6.594;2023-06-19T12:33:18;26.60;99.90
22471;DHT22;11402;51.374;6.594;2023-06-19T12:35:44;26.50;99.90
22471;DHT22;11402;51.374;6.594;2023-06-19T12:38:10;26.20;99.90
22471;DHT22;11402;51.374;6.594;2023-06-19T12:40:39;26.30;99.90
22471;DHT22;11402;51.374;6.594;2023-06-19T12:43:04;26.20;99.90
22471;DHT22;11402;51.374;6.594;2023-06-19T12:45:30;26.30;99.90
22471;DHT22;11402;51.374;6.594;2023-06-19T12:47:56;26.30;99.90
22471;DHT22;11402;51.374;6.594;2023-06-19T12:50:21;26.40;99.90
22471;DHT22;11402;51.374;6.594;2023-06-19T12:52:48;26.60;99.90
22471;DHT22;11402;51.374;6.594;2023-06-19T12:55:14;26.70;99.90
22471;DHT22;11402;51.374;6.594;2023-06-19T12:57:39;26.60;99.90
22471;DHT22;11402;51.374;6.594;2023-06-19T13:00:10;26.60;99.90
22471;DHT22;11402;51.374;6.594;2023-06-19T13:02:37;26.70;99.90
22471;DHT22;11402;51.374;6.594;2023-06-19T13:05:03;26.70;99.90
22471;DHT22;11402;51.374;6.594;2023-06-19T13:07:28;26.80;99.90
22471;DHT22;11402;51.374;6.594;2023-06-19T13:09:54;26.90;99.90
22471;DHT22;11402;51.374;6.594;2023-06-19T13:12:22;26.70;99.90
22471;DHT22;11402;51.374;6.594;2023-06-19T13:14:48;26.70;99.90
22471;DHT22;11402;51.374;6.594;2023-06-19T13:17:13;26.70;99.90
22471;DHT22;11402;51.374;6.594;2023-06-19T13:19:39;26.50;99.90
22471;DHT22;11402;51.374;6.594;2023-06-19T13:22:05;26.60;99.90
22471;DHT22;11402;51.374;6.594;2023-06-19T13:24:31;26.70;99.90
22471;DHT22;11402;51.374;6.594;2023-06-19T13:26:56;26.80;99.90
22471;DHT22;11402;51.374;6.594;2023-06-19T13:29:22;26.70;99.90
22471;DHT22;11402;51.374;6.594;2023-06-19T13:31:47;26.50;99.90
22471;DHT22;11402;51.374;6.594;2023-06-19T13:34:13;26.70;99.90
22471;DHT22;11402;51.374;6.594;2023-06-19T13:36:38;26.80;99.90
22471;DHT22;11402;51.374;6.594;2023-06-19T13:39:05;26.90;99.90
22471;DHT22;11402;51.374;6.594;2023-06-19T13:41:31;26.90;99.90
22471;DHT22;11402;51.374;6.594;2023-06-19T13:43:58;27.10;99.90
22471;DHT22;11402;51.374;6.594;2023-06-19T13:46:24;27.00;99.90
22471;DHT22;11402;51.374;6.594;2023-06-19T13:48:50;26.90;99.90
22471;DHT22;11402;51.374;6.594;2023-06-19T13:51:20;26.90;99.90
22471;DHT22;11402;51.374;6.594;2023-06-19T13:53:47;26.80;99.90
22471;DHT22;11402;51.374;6.594;2023-06-19T13:56:13;26.70;99.90
22471;DHT22;11402;51.374;6.594;2023-06-19T13:58:39;26.80;99.90
22471;DHT22;11402;51.374;6.594;2023-06-19T14:01:05;26.90;99.90
22471;DHT22;11402;51.374;6.594;2023-06-19T14:03:31;27.10;99.90
22471;DHT22;11402;51.374;6.594;2023-06-19T14:05:57;27.10;99.90
22471;DHT22;11402;51.374;6.594;2023-06-19T14:08:22;26.90;99.90
22471;DHT22;11402;51.374;6.594;2023-06-19T14:10:49;26.70;98.70
22471;DHT22;11402;51.374;6.594;2023-06-19T14:13:15;26.50;99.90
22471;DHT22;11402;51.374;6.594;2023-06-19T14:15:41;26.70;99.90
22471;DHT22;11402;51.374;6.594;2023-06-19T14:18:06;26.70;99.30
22471;DHT22;11402;51.374;6.594;2023-06-19T14:20:32;26.70;97.10
22471;DHT22;11402;51.374;6.594;2023-06-19T14:22:58;26.40;99.40
22471;DHT22;11402;51.374;6.594;2023-06-19T14:25:23;26.70;99.30
22471;DHT22;11402;51.374;6.594;2023-06-19T14:27:49;26.80;99.90
22471;DHT22;11402;51.374;6.594;2023-06-19T14:30:14;27.00;99.90
22471;DHT22;11402;51.374;6.594;2023-06-19T14:32:40;27.00;98.40
22471;DHT22;11402;51.374;6.594;2023-06-19T14:35:06;27.00;97.50
22471;DHT22;11402;51.374;6.594;2023-06-19T14:37:32;26.80;98.70
22471;DHT22;11402;51.374;6.594;2023-06-19T14:39:57;27.00;95.80
22471;DHT22;11402;51.374;6.594;2023-06-19T14:42:23;27.00;97.50
22471;DHT22;11402;51.374;6.594;2023-06-19T14:44:49;26.90;96.10
22471;DHT22;11402;51.374;6.594;2023-06-19T14:47:14;27.00;98.30
22471;DHT22;11402;51.374;6.594;2023-06-19T14:49:40;27.00;97.60
22471;DHT22;11402;51.374;6.594;2023-06-19T14:52:06;27.10;96.00
22471;DHT22;11402;51.374;6.594;2023-06-19T14:54:32;27.00;96.70
22471;DHT22;11402;51.374;6.594;2023-06-19T14:56:58;27.10;95.50
22471;DHT22;11402;51.374;6.594;2023-06-19T14:59:24;26.80;95.70
22471;DHT22;11402;51.374;6.594;2023-06-19T15:01:49;27.00;97.90
22471;DHT22;11402;51.374;6.594;2023-06-19T15:04:15;27.10;95.40
22471;DHT22;11402;51.374;6.594;2023-06-19T15:06:41;26.90;97.70
22471;DHT22;11402;51.374;6.594;2023-06-19T15:09:06;26.90;95.10
22471;DHT22;11402;51.374;6.594;2023-06-19T15:11:32;27.00;97.80
22471;DHT22;11402;51.374;6.594;2023-06-19T15:13:57;27.10;95.90
22471;DHT22;11402;51.374;6.594;2023-06-19T15:16:23;26.90;96.60
22471;DHT22;11402;51.374;6.594;2023-06-19T15:18:51;27.10;99.90
22471;DHT22;11402;51.374;6.594;2023-06-19T15:21:17;27.20;97.20
22471;DHT22;11402;51.374;6.594;2023-06-19T15:23:42;27.20;97.50
22471;DHT22;11402;51.374;6.594;2023-06-19T15:26:08;27.20;97.80
22471;DHT22;11402;51.374;6.594;2023-06-19T15:28:33;27.20;95.10
22471;DHT22;11402;51.374;6.594;2023-06-19T15:30:59;27.00;94.70
22471;DHT22;11402;51.374;6.594;2023-06-19T15:33:25;27.00;95.40
22471;DHT22;11402;51.374;6.594;2023-06-19T15:35:51;27.00;96.40